• Join FlightAware (Why Join?)
  • Login
  • US Flag 
07:20PM EDT


 

Airport Tracker/Info


-or-


 

Live Flight TrackerFlight Track Log ✈ EJA831 ✈ 07-Dec-2013 ✈ KDWH - KNEW

Flight Track Log - Related Links

Times and Time Zones

All times are in EST time to prevent confusion due to time zone crossing. See the EJA831 flight status page for this flight to view local times or setup timezone preferences in your user account.

Time Position Orientation Groundspeed Altitude Reporting Facility
EST Latitude Longitude Course Direction KTS MPH feet Rate Location/Type
05:55PM 30.0756 -95.5567 32° Northeast 173 199 1,000  Level Houston Center
05:57PM 30.1208 -95.5236 32° Northeast 182 209 3,500 1,980 Climbing Houston Center
05:58PM 30.0953 -95.4733 120° Southeast 212 244 5,900 2,580 Climbing Houston Center
05:59PM 30.0414 -95.4353 149° Southeast 254 292 8,600 2,460 Climbing Houston Center
05:59PM 30.0436 -95.4353 360° North 233 268 8,500 2,040 Descending Houston Center
06:00PM 30.0186 -95.3467 108° East 286 329 10,900 2,280 Climbing Houston Center
06:01PM 30.0025 -95.2369 100° East 337 388 13,200 2,340 Climbing Houston Center
06:02PM 29.9864 -95.1231 99° East 353 406 15,800 2,460 Climbing Houston Center
06:03PM 29.9692 -95.0075 100° East 359 413 18,300 2,580 Climbing Houston Center
06:04PM 29.9514 -94.8928 100° East 361 415 21,100 2,700 Climbing Houston Center
06:05PM 29.9306 -94.7561 100° East 360 414 23,900 1,860 Climbing Houston Center
06:06PM 29.9117 -94.6336 100° East 381 438 25,000 480 Climbing Houston Center
06:07PM 29.8897 -94.4950 100° East 436 502 25,000  Level Houston Center
06:08PM 29.8678 -94.3539 100° East 447 514 25,000  Level Houston Center
06:09PM 29.8589 -94.2122 94° East 444 511 25,000  Level Houston Center
06:10PM 29.8553 -94.0811 92° East 436 502 25,000  Level Houston Center
06:11PM 29.8681 -93.9150 85° East 437 503 25,000  Level Houston Center
06:12PM 29.8828 -93.7789 83° East 434 499 25,000  Level Houston Center
06:13PM 29.8967 -93.6419 83° East 434 499 25,000  Level Houston Center
06:14PM 29.9117 -93.5053 83° East 435 501 25,000  Level Houston Center
06:15PM 29.9256 -93.3692 83° East 433 498 25,000  Level Houston Center
06:16PM 29.9394 -93.2317 83° East 435 501 25,000  Level Houston Center
06:17PM 29.9531 -93.0950 83° East 433 498 25,000  Level Houston Center
06:18PM 29.9700 -92.9306 83° East 434 499 25,000  Level Houston Center
06:19PM 29.9808 -92.7925 85° East 434 499 25,000  Level Houston Center
06:20PM 29.9925 -92.6539 84° East 435 501 25,000  Level Houston Center
06:21PM 30.0028 -92.5147 85° East 436 502 25,000  Level Houston Center
06:22PM 30.0139 -92.3694 85° East 453 521 25,000  Level Houston Center
06:23PM 30.0253 -92.2189 85° East 468 539 25,000  Level Houston Center
06:24PM 30.0372 -92.0678 85° East 474 545 25,000 -1,080 Level Houston Center
06:25PM 30.0500 -91.8900 85° East 467 537 22,900 -2,100 Descending Houston Center
06:26PM 30.0608 -91.7514 85° East 441 507 20,800 -1,860 Descending Houston Center
06:27PM 30.0694 -91.6294 85° East 429 494 19,200 -1,560 Descending Houston Center
06:28PM 30.0794 -91.4981 85° East 412 474 17,700 -1,680 Descending Houston Center
06:29PM 30.0872 -91.3775 86° East 383 441 15,900 -2,040 Descending Houston Center
06:30PM 30.0919 -91.3161 85° East 366 421 15,000 -2,160 Descending Houston Center
06:30PM 30.0975 -91.2342 85° East 376 433 13,700 -1,800 Descending Houston Center
06:31PM 30.0994 -91.1956 87° East 382 440 13,200 -1,800 Descending Houston Center
06:31PM 30.1061 -91.1136 85° East 378 435 11,900 -1,800 Descending Houston Center
06:32PM 30.1092 -91.0753 85° East 378 435 11,400 -900 Descending Houston Center
06:32PM 30.1136 -90.9989 86° East 363 418 11,000 -420 Descending Houston Center
06:33PM 30.1108 -90.9669 96° East 334 384 11,000 -900 Level Houston Center
06:33PM 30.0892 -90.9053 112° Southeast 317 365 10,100 -1,440 Descending Houston Center
06:34PM 30.0792 -90.8767 112° Southeast 290 334 9,600 -1,140 Descending Houston Center
06:34PM 30.0581 -90.8178 112° Southeast 300 345 9,000 -600 Descending Houston Center
06:35PM 30.0478 -90.7914 114° Southeast 288 331 9,000 -240 Level Houston Center
06:35PM 30.0286 -90.7339 111° Southeast 290 334 8,800 -900 Descending Houston Center
06:36PM 30.0139 -90.6942 113° Southeast 285 328 8,000 -1,680 Descending Houston Center
06:37PM 29.9989 -90.6519 112° Southeast 285 328 7,100 -1,740 Descending Houston Center
06:37PM 29.9844 -90.6111 112° Southeast 275 316 6,300 -1,680 Descending Houston Center
06:38PM 29.9700 -90.5692 112° Southeast 281 323 5,400 -1,200 Descending Houston Center
06:38PM 29.9528 -90.5236 114° Southeast 277 319 5,000 -420 Descending Houston Center
06:39PM 29.9364 -90.4736 111° Southeast 276 318 5,000  Level Houston Center
06:39PM 29.9256 -90.4503 118° Southeast 268 308 5,000  Level Houston Center
06:40PM 29.9072 -90.3944 111° Southeast 272 313 5,000 -360 Level Houston Center
06:40PM 29.8914 -90.3533 114° Southeast 274 315 4,600 -1,320 Descending Houston Center
06:41PM 29.8769 -90.3139 113° Southeast 273 314 3,700 -1,500 Descending Houston Center
06:41PM 29.8617 -90.2728 113° Southeast 270 311 3,100 -720 Descending Houston Center
06:42PM 29.8486 -90.2372 113° Southeast 270 311 3,000 -120 Descending Houston Center
06:42PM 29.8367 -90.2044 113° Southeast 195 224 3,000  Level Houston Center
06:43PM 29.8283 -90.1814 113° Southeast 224 258 3,000  Level Houston Center
06:43PM 29.8206 -90.1547 109° East 188 216 3,000  Level Houston Center
06:44PM 29.8264 -90.1183 80° East 216 249 3,000  Level Houston Center
06:44PM 29.8331 -90.0869 76° East 203 234 3,000  Level Houston Center
06:45PM 29.8414 -90.0586 71° East 202 232 3,000  Level Houston Center
06:45PM 29.8461 -90.0361 76° East 194 223 3,000 -120 Level Houston Center
06:46PM 29.8800 -90.0286 11° North 212 244 2,900 -420 Descending Houston Center
06:46PM 29.9022 -90.0289 359° North 192 221 2,600 -720 Descending Houston Center
06:47PM 29.9278 -90.0286 North 188 216 2,200 -720 Descending Houston Center
06:47PM 29.9419 -90.0297 356° North 124 143 1,900 -840 Descending Houston Center
06:48PM 29.9678 -90.0289 North 146 168 1,400 -600 Descending Houston Center
06:48PM 29.9733 -90.0283 North 98 113 1,300 -600 Descending Houston Center
06:49PM 29.9961 -90.0294 358° North 120 138 800 -600 Descending Houston Center
06:49PM 30.0003 -90.0297 357° North 102 117 800 -540 Level Houston Center
06:50PM 30.0244 -90.0300 359° North 108 124 300 -600 Descending Houston Center